Time;durP1;ratioP1;P1;durP2;ratioP2;P2;SDS_P1;SDS_P2;PMS_P1;PMS_P2;Temp;Humidity;BMP_temperature;BMP_pressure;BME280_temperature;BME280_humidity;BME280_pressure;Samples;Min_cycle;Max_cycle;Signal;HPM_P1;HPM_P2
2022/03/15 00:01:23;;;;;;;6.53;4.03;;;6.30;99.90;;;;;;5039674;28;20033;-71
2022/03/15 00:03:49;;;;;;;10.77;4.88;;;6.30;99.90;;;;;;5036670;28;20457;-69
2022/03/15 00:06:15;;;;;;;8.75;4.15;;;6.30;99.90;;;;;;5043038;28;20037;-71
2022/03/15 00:08:42;;;;;;;9.45;4.43;;;6.30;99.90;;;;;;5036914;28;20075;-71
2022/03/15 00:11:09;;;;;;;11.63;4.63;;;6.30;99.90;;;;;;5040402;28;20800;-71
2022/03/15 00:13:38;;;;;;;11.30;4.75;;;6.30;99.90;;;;;;5037902;28;20473;-71
2022/03/15 00:16:08;;;;;;;6.93;4.10;;;6.20;99.90;;;;;;5040290;28;20021;-70
2022/03/15 00:18:35;;;;;;;9.40;3.55;;;6.20;99.90;;;;;;5036277;28;20532;-70
2022/03/15 00:21:03;;;;;;;8.48;3.40;;;6.20;99.90;;;;;;5040740;28;20060;-71
2022/03/15 00:23:29;;;;;;;8.52;3.80;;;6.10;99.90;;;;;;5040815;28;20061;-70
2022/03/15 00:25:55;;;;;;;11.27;3.78;;;6.10;99.90;;;;;;5040941;28;20090;-71
2022/03/15 00:28:24;;;;;;;8.05;4.15;;;6.10;99.90;;;;;;5037405;28;20021;-70
2022/03/15 00:30:51;;;;;;;11.30;4.38;;;6.10;99.90;;;;;;5039921;28;20103;-70
2022/03/15 00:33:17;;;;;;;9.05;4.22;;;6.10;99.90;;;;;;5040583;28;20456;-71
2022/03/15 00:35:43;;;;;;;10.05;4.47;;;6.10;99.90;;;;;;5038309;28;20037;-71
2022/03/15 00:38:09;;;;;;;13.20;4.72;;;6.10;99.90;;;;;;5041984;28;20393;-71
2022/03/15 00:40:35;;;;;;;9.18;3.67;;;6.10;99.90;;;;;;5034412;28;20029;-71
2022/03/15 00:43:01;;;;;;;9.55;4.30;;;6.10;99.90;;;;;;5040383;28;20493;-70
2022/03/15 00:45:30;;;;;;;10.88;3.90;;;6.00;99.90;;;;;;5038516;28;20029;-70
2022/03/15 00:47:58;;;;;;;9.68;3.85;;;6.00;99.90;;;;;;5036024;28;20021;-70
2022/03/15 00:50:24;;;;;;;9.68;4.13;;;6.00;99.90;;;;;;5044607;28;20024;-71
2022/03/15 00:52:51;;;;;;;15.43;4.95;;;6.00;99.90;;;;;;5040403;28;20029;-71
2022/03/15 00:55:17;;;;;;;8.40;4.00;;;6.00;99.90;;;;;;5038911;28;20646;-71
2022/03/15 00:57:43;;;;;;;7.95;4.35;;;6.00;99.90;;;;;;5035991;28;20083;-70
2022/03/15 01:00:11;;;;;;;9.45;3.53;;;6.00;99.90;;;;;;5036181;28;20025;-69
2022/03/15 01:02:37;;;;;;;8.10;3.70;;;6.00;99.90;;;;;;5034397;28;20128;-70
2022/03/15 01:05:04;;;;;;;12.40;3.58;;;6.00;99.90;;;;;;5036553;28;20109;-70
2022/03/15 01:07:30;;;;;;;8.85;3.80;;;6.10;99.90;;;;;;5042373;28;20092;-70
2022/03/15 01:09:55;;;;;;;8.48;3.47;;;6.00;99.90;;;;;;5038506;28;20112;-70
2022/03/15 01:12:21;;;;;;;9.18;3.88;;;6.00;99.90;;;;;;5045459;28;20055;-70
2022/03/15 01:14:47;;;;;;;7.72;4.03;;;6.00;99.90;;;;;;5042678;28;20037;-69
2022/03/15 01:17:12;;;;;;;8.43;3.58;;;6.00;99.90;;;;;;5043867;28;20025;-69
2022/03/15 01:19:38;;;;;;;8.98;3.60;;;6.00;99.90;;;;;;5034246;28;20030;-69
2022/03/15 01:22:04;;;;;;;8.38;3.63;;;6.00;99.90;;;;;;5041686;28;20025;-69
2022/03/15 01:24:30;;;;;;;11.35;3.63;;;6.00;99.90;;;;;;5044318;28;20037;-69
2022/03/15 01:26:56;;;;;;;7.85;3.15;;;6.00;99.90;;;;;;5041040;28;20029;-68
2022/03/15 01:29:24;;;;;;;9.20;3.40;;;5.90;99.90;;;;;;5043660;28;20036;-68
2022/03/15 01:31:50;;;;;;;8.63;3.60;;;5.90;99.90;;;;;;5039849;28;20051;-69
2022/03/15 01:34:16;;;;;;;11.63;3.83;;;5.90;99.90;;;;;;5039763;28;20071;-67
2022/03/15 01:36:42;;;;;;;8.95;3.88;;;5.90;99.90;;;;;;5043506;28;20381;-69
2022/03/15 01:39:08;;;;;;;11.20;3.95;;;5.80;99.90;;;;;;5045556;28;20025;-68
2022/03/15 01:41:35;;;;;;;7.82;3.67;;;5.90;99.90;;;;;;5048719;28;20044;-69
2022/03/15 01:44:03;;;;;;;8.32;3.63;;;5.80;99.90;;;;;;5042006;28;20026;-69
2022/03/15 01:46:29;;;;;;;6.85;3.78;;;5.80;99.90;;;;;;5045569;28;20033;-68
2022/03/15 01:48:54;;;;;;;8.52;3.67;;;5.80;99.90;;;;;;5043118;28;20021;-69
2022/03/15 01:51:21;;;;;;;9.75;3.17;;;5.80;99.90;;;;;;5046262;28;20072;-69
2022/03/15 01:53:47;;;;;;;6.95;3.17;;;5.80;99.90;;;;;;5037905;28;20029;-69
2022/03/15 01:56:13;;;;;;;7.57;3.35;;;5.80;99.90;;;;;;5042079;28;20049;-69
2022/03/15 01:58:39;;;;;;;10.52;3.03;;;5.80;99.90;;;;;;5043069;28;20119;-69
2022/03/15 02:01:04;;;;;;;10.27;3.38;;;5.80;99.90;;;;;;5046891;28;20040;-69
2022/03/15 02:03:31;;;;;;;12.02;3.70;;;5.70;99.90;;;;;;5041943;28;20032;-69
2022/03/15 02:05:56;;;;;;;8.13;3.58;;;5.70;99.90;;;;;;5041973;28;20033;-69
2022/03/15 02:08:22;;;;;;;11.52;4.18;;;5.80;99.90;;;;;;5046717;28;20087;-69
2022/03/15 02:10:47;;;;;;;9.88;4.25;;;5.80;99.90;;;;;;5038330;28;20025;-69
2022/03/15 02:13:13;;;;;;;9.18;3.70;;;5.70;99.90;;;;;;5039955;28;20033;-69
2022/03/15 02:15:39;;;;;;;8.75;3.80;;;5.70;99.90;;;;;;5041566;28;20052;-70
2022/03/15 02:18:05;;;;;;;7.50;3.75;;;5.70;99.90;;;;;;5045065;28;20111;-68
2022/03/15 02:20:32;;;;;;;9.57;3.33;;;5.80;99.90;;;;;;5045971;28;20116;-68
2022/03/15 02:22:57;;;;;;;7.30;3.83;;;5.70;99.90;;;;;;5041331;28;20449;-69
2022/03/15 02:25:26;;;;;;;8.68;4.10;;;5.70;99.90;;;;;;5045522;28;20034;-70
2022/03/15 02:27:52;;;;;;;8.40;4.10;;;5.80;99.90;;;;;;5042410;28;20036;-70
2022/03/15 02:30:21;;;;;;;8.73;4.63;;;5.70;99.90;;;;;;5047187;28;20071;-69
2022/03/15 02:32:48;;;;;;;10.65;3.60;;;5.70;99.90;;;;;;5048487;28;20051;-69
2022/03/15 02:35:17;;;;;;;9.82;3.72;;;5.70;99.90;;;;;;5050746;28;20627;-69
2022/03/15 02:37:43;;;;;;;6.60;3.33;;;5.70;99.90;;;;;;5044917;28;20036;-70
2022/03/15 02:40:09;;;;;;;9.52;3.83;;;5.70;99.90;;;;;;5049162;28;20025;-69
2022/03/15 02:42:35;;;;;;;10.15;3.65;;;5.70;99.90;;;;;;5046370;28;20028;-68
2022/03/15 02:45:01;;;;;;;8.63;3.75;;;5.60;99.90;;;;;;5051270;28;20127;-69
2022/03/15 02:47:27;;;;;;;9.90;3.30;;;5.60;99.90;;;;;;5046186;28;20037;-69
2022/03/15 02:49:53;;;;;;;6.22;3.55;;;5.60;99.90;;;;;;5048624;28;20101;-70
2022/03/15 02:52:19;;;;;;;11.70;3.60;;;5.50;99.90;;;;;;5047588;28;20029;-69
2022/03/15 02:54:45;;;;;;;6.45;3.58;;;5.60;99.90;;;;;;5046545;28;20567;-69
2022/03/15 02:57:11;;;;;;;10.07;3.90;;;5.50;99.90;;;;;;5044098;28;20284;-68
2022/03/15 02:59:39;;;;;;;6.85;3.78;;;5.50;99.90;;;;;;5047603;28;20031;-69
2022/03/15 03:02:08;;;;;;;6.53;3.60;;;5.60;99.90;;;;;;5047244;28;20619;-70
2022/03/15 03:04:33;;;;;;;8.65;3.80;;;5.60;99.90;;;;;;5045675;28;20025;-69
2022/03/15 03:07:01;;;;;;;6.10;3.55;;;5.50;99.90;;;;;;5043937;28;20260;-70
2022/03/15 03:09:28;;;;;;;8.73;3.58;;;5.50;99.90;;;;;;5035208;28;20152;-70
2022/03/15 03:11:53;;;;;;;9.38;3.67;;;5.50;99.90;;;;;;5035351;28;20057;-70
2022/03/15 03:14:21;;;;;;;7.38;3.58;;;5.50;99.90;;;;;;5045012;28;20523;-69
2022/03/15 03:16:47;;;;;;;5.65;2.95;;;5.60;99.90;;;;;;5041806;28;20028;-71
2022/03/15 03:19:13;;;;;;;8.57;3.45;;;5.60;99.90;;;;;;5048892;28;20037;-70
2022/03/15 03:21:40;;;;;;;7.18;3.13;;;5.60;99.90;;;;;;5048750;28;20082;-70
2022/03/15 03:24:06;;;;;;;10.15;3.47;;;5.60;99.90;;;;;;5045657;28;20059;-70
2022/03/15 03:26:37;;;;;;;8.27;2.95;;;5.60;99.90;;;;;;5043418;28;20426;-70
2022/03/15 03:29:09;;;;;;;7.03;2.85;;;5.60;99.90;;;;;;5044638;28;20025;-70
2022/03/15 03:31:38;;;;;;;5.82;3.08;;;5.60;99.90;;;;;;5043226;28;20029;-70
2022/03/15 03:34:05;;;;;;;9.25;3.22;;;5.60;99.90;;;;;;5044662;28;24457;-70
2022/03/15 03:36:36;;;;;;;7.38;2.97;;;5.60;99.90;;;;;;5041654;28;20056;-70
2022/03/15 03:39:03;;;;;;;5.10;3.05;;;5.60;99.90;;;;;;5049497;28;20957;-68
2022/03/15 03:41:29;;;;;;;7.40;3.10;;;5.60;99.90;;;;;;5045132;28;20112;-70
2022/03/15 03:43:54;;;;;;;7.55;3.03;;;5.70;99.90;;;;;;5045304;28;20117;-70
2022/03/15 03:46:20;;;;;;;7.10;2.85;;;5.60;99.90;;;;;;5045166;28;20438;-70
2022/03/15 03:48:45;;;;;;;11.32;3.92;;;5.60;99.90;;;;;;5044960;28;20025;-69
2022/03/15 03:51:13;;;;;;;6.72;3.38;;;5.70;99.90;;;;;;5044640;28;20025;-70
2022/03/15 03:53:40;;;;;;;10.40;3.35;;;5.60;99.90;;;;;;5046483;28;20021;-70
2022/03/15 03:56:06;;;;;;;7.38;3.00;;;5.60;99.90;;;;;;5044023;28;20017;-68
2022/03/15 03:58:32;;;;;;;8.38;3.20;;;5.60;99.90;;;;;;5047365;28;20035;-70
2022/03/15 04:00:58;;;;;;;7.30;3.03;;;5.50;99.90;;;;;;5047226;28;20076;-69
2022/03/15 04:03:24;;;;;;;10.02;3.58;;;5.60;99.90;;;;;;5042888;28;20117;-71
2022/03/15 04:05:51;;;;;;;10.07;3.42;;;5.50;99.90;;;;;;5045177;28;20031;-70
2022/03/15 04:08:18;;;;;;;5.95;3.03;;;5.50;99.90;;;;;;5046917;28;20033;-69
2022/03/15 04:10:47;;;;;;;9.43;3.13;;;5.50;99.90;;;;;;5045178;28;20036;-70
2022/03/15 04:13:17;;;;;;;6.85;3.08;;;5.40;99.90;;;;;;5043821;28;20064;-68
2022/03/15 04:15:47;;;;;;;8.57;3.22;;;5.40;99.90;;;;;;5044509;28;20017;-70
2022/03/15 04:18:13;;;;;;;7.50;3.15;;;5.40;99.90;;;;;;5040683;28;20561;-68
2022/03/15 04:20:40;;;;;;;6.47;3.10;;;5.40;99.90;;;;;;5045458;28;20056;-70
2022/03/15 04:23:05;;;;;;;8.20;3.20;;;5.40;99.90;;;;;;5041707;28;20044;-69
2022/03/15 04:25:31;;;;;;;6.90;3.40;;;5.30;99.90;;;;;;5043718;28;20536;-70
2022/03/15 04:28:00;;;;;;;10.70;2.45;;;5.30;99.90;;;;;;5041758;28;20508;-71
2022/03/15 04:30:28;;;;;;;8.60;3.28;;;5.40;99.90;;;;;;5044265;28;20017;-67
2022/03/15 04:32:54;;;;;;;9.82;2.80;;;5.30;99.90;;;;;;5047678;28;20032;-69
2022/03/15 04:35:19;;;;;;;5.03;2.88;;;5.40;99.90;;;;;;5046690;28;20024;-69
2022/03/15 04:37:45;;;;;;;7.80;2.92;;;5.40;99.90;;;;;;5045888;28;20033;-69
2022/03/15 04:40:12;;;;;;;6.65;2.50;;;5.40;99.90;;;;;;5041372;28;20037;-69
2022/03/15 04:42:38;;;;;;;7.40;2.95;;;5.50;99.90;;;;;;5048406;28;20040;-70
2022/03/15 04:45:05;;;;;;;9.48;3.10;;;5.50;99.90;;;;;;5050620;28;20417;-68
2022/03/15 04:47:31;;;;;;;7.13;2.97;;;5.50;99.90;;;;;;5048207;28;20363;-70
2022/03/15 04:49:57;;;;;;;6.75;3.67;;;5.50;99.90;;;;;;5042750;28;20036;-69
2022/03/15 04:52:22;;;;;;;7.53;3.05;;;5.60;99.90;;;;;;5043792;28;20140;-69
2022/03/15 04:54:48;;;;;;;7.53;3.20;;;5.60;99.90;;;;;;5045897;28;20025;-68
2022/03/15 04:57:13;;;;;;;10.45;3.15;;;5.60;99.90;;;;;;5048404;28;20029;-69
2022/03/15 04:59:40;;;;;;;13.82;3.47;;;5.60;99.90;;;;;;5048047;28;20409;-69
2022/03/15 05:02:05;;;;;;;11.75;3.95;;;5.60;99.90;;;;;;5041179;28;20396;-70
2022/03/15 05:04:32;;;;;;;8.35;4.15;;;5.60;99.90;;;;;;5042332;28;20104;-69
2022/03/15 05:06:58;;;;;;;7.80;3.28;;;5.60;99.90;;;;;;5042932;28;20428;-69
2022/03/15 05:09:23;;;;;;;9.77;3.20;;;5.60;99.90;;;;;;5044732;28;20028;-69
2022/03/15 05:11:49;;;;;;;9.02;3.25;;;5.60;99.90;;;;;;5043280;28;20072;-69
2022/03/15 05:14:15;;;;;;;7.47;2.90;;;5.60;99.90;;;;;;5047307;28;20029;-68
2022/03/15 05:16:41;;;;;;;12.90;3.28;;;5.60;99.90;;;;;;5046970;28;20032;-68
2022/03/15 05:19:07;;;;;;;5.75;3.30;;;5.60;99.90;;;;;;5046329;28;20481;-67
2022/03/15 05:21:33;;;;;;;7.85;3.42;;;5.70;99.90;;;;;;5049200;28;20060;-70
2022/03/15 05:23:58;;;;;;;10.75;3.25;;;5.70;99.90;;;;;;5046012;28;20160;-69
2022/03/15 05:26:24;;;;;;;13.25;3.65;;;5.70;99.90;;;;;;5043440;28;20036;-69
2022/03/15 05:28:51;;;;;;;7.05;2.92;;;5.60;99.90;;;;;;5045638;28;20458;-69
2022/03/15 05:31:21;;;;;;;7.22;3.10;;;5.60;99.90;;;;;;5047301;28;20025;-69
2022/03/15 05:33:47;;;;;;;7.63;3.45;;;5.60;99.90;;;;;;5049081;28;20029;-69
2022/03/15 05:36:14;;;;;;;6.72;4.13;;;5.70;99.90;;;;;;5052434;28;20017;-70
2022/03/15 05:38:41;;;;;;;11.65;4.55;;;5.60;99.90;;;;;;5044348;28;20029;-69
2022/03/15 05:41:07;;;;;;;10.07;4.22;;;5.70;99.90;;;;;;5045084;28;20029;-69
2022/03/15 05:43:36;;;;;;;7.50;3.90;;;5.70;99.90;;;;;;5044394;28;20374;-69
2022/03/15 05:46:03;;;;;;;5.70;3.50;;;5.70;99.90;;;;;;5036803;28;20414;-70
2022/03/15 05:48:29;;;;;;;9.95;3.33;;;5.70;99.90;;;;;;5046674;28;20478;-69
2022/03/15 05:50:54;;;;;;;8.32;3.40;;;5.70;99.90;;;;;;5042915;28;20072;-69
2022/03/15 05:53:20;;;;;;;7.85;3.40;;;5.70;99.90;;;;;;5051589;28;20029;-69
2022/03/15 05:55:46;;;;;;;10.18;4.10;;;5.70;99.90;;;;;;5060287;28;20118;-70
2022/03/15 05:58:14;;;;;;;10.15;3.80;;;5.70;99.90;;;;;;5053674;28;20021;-70
2022/03/15 06:00:40;;;;;;;8.27;3.85;;;5.60;99.90;;;;;;5051545;28;20025;-69
2022/03/15 06:03:05;;;;;;;5.88;3.40;;;5.70;99.90;;;;;;5047352;28;20033;-70
2022/03/15 06:05:31;;;;;;;9.65;3.85;;;5.70;99.90;;;;;;5046097;28;20036;-70
2022/03/15 06:07:57;;;;;;;11.18;4.93;;;5.70;99.90;;;;;;5051677;28;20191;-69
2022/03/15 06:10:23;;;;;;;8.95;5.20;;;5.70;99.90;;;;;;5051300;28;20132;-70
2022/03/15 06:12:50;;;;;;;11.27;4.60;;;5.70;99.90;;;;;;5051555;28;20870;-70
2022/03/15 06:15:17;;;;;;;7.60;3.63;;;5.80;99.90;;;;;;5050982;28;20474;-70
2022/03/15 06:17:57;;;;;;;11.45;3.88;;;5.80;99.90;;;;;;5041186;28;20026;-70
2022/03/15 06:20:24;;;;;;;9.52;3.65;;;5.90;99.90;;;;;;5046160;28;20025;-69
2022/03/15 06:22:51;;;;;;;9.60;4.35;;;5.80;99.90;;;;;;5049507;28;20112;-68
2022/03/15 06:25:16;;;;;;;10.35;4.60;;;5.90;99.90;;;;;;5043822;28;20034;-69
2022/03/15 06:27:43;;;;;;;9.13;4.63;;;5.90;99.90;;;;;;5048437;28;20025;-70
2022/03/15 06:30:11;;;;;;;12.93;4.65;;;5.90;99.90;;;;;;5049038;28;20021;-70
2022/03/15 06:32:37;;;;;;;10.25;4.88;;;6.00;99.90;;;;;;5047689;28;20057;-70
2022/03/15 06:35:07;;;;;;;10.05;4.25;;;6.00;99.90;;;;;;5043626;28;20048;-69
2022/03/15 06:37:35;;;;;;;14.65;4.25;;;6.10;99.90;;;;;;5045282;28;20032;-70
2022/03/15 06:40:00;;;;;;;12.75;4.80;;;6.10;99.90;;;;;;5045911;28;20037;-68
2022/03/15 06:42:26;;;;;;;9.85;4.40;;;6.20;99.90;;;;;;5048536;28;20052;-68
2022/03/15 06:44:52;;;;;;;11.35;5.00;;;6.20;99.90;;;;;;5036425;28;20564;-71
2022/03/15 06:47:17;;;;;;;12.45;4.00;;;6.30;99.90;;;;;;5053744;28;20025;-70
2022/03/15 06:49:43;;;;;;;13.93;4.47;;;6.30;99.90;;;;;;5046023;28;20021;-69
2022/03/15 06:52:09;;;;;;;11.43;4.80;;;6.40;99.90;;;;;;5047776;28;20078;-69
2022/03/15 06:54:35;;;;;;;14.73;4.68;;;6.50;99.90;;;;;;5042775;28;20020;-69
2022/03/15 06:57:00;;;;;;;13.27;5.10;;;6.60;99.90;;;;;;5052239;28;20033;-69
2022/03/15 06:59:26;;;;;;;16.42;5.47;;;6.60;99.90;;;;;;5053116;28;20127;-71
2022/03/15 07:01:52;;;;;;;11.70;6.10;;;6.80;99.90;;;;;;5038483;28;20044;-62
2022/03/15 07:04:18;;;;;;;12.35;5.97;;;6.90;99.90;;;;;;5043148;28;20489;-62
2022/03/15 07:06:44;;;;;;;13.25;5.95;;;7.00;99.90;;;;;;5046896;28;20111;-68
2022/03/15 07:09:11;;;;;;;14.38;5.97;;;7.10;99.90;;;;;;5044539;28;20033;-68
2022/03/15 07:11:37;;;;;;;13.45;5.38;;;7.10;99.90;;;;;;5043792;28;20036;-70
2022/03/15 07:14:03;;;;;;;11.88;6.00;;;7.10;99.90;;;;;;5042395;28;20025;-69
2022/03/15 07:16:29;;;;;;;12.80;6.57;;;7.20;99.90;;;;;;5042399;28;20028;-70
2022/03/15 07:18:56;;;;;;;15.63;6.40;;;7.20;99.90;;;;;;5049710;28;20032;-69
2022/03/15 07:21:21;;;;;;;15.00;5.97;;;7.30;99.90;;;;;;5044064;28;20029;-69
2022/03/15 07:23:47;;;;;;;18.20;6.07;;;7.30;99.90;;;;;;5048528;28;20030;-70
2022/03/15 07:26:13;;;;;;;13.32;6.32;;;7.40;99.90;;;;;;5046838;28;20039;-70
2022/03/15 07:28:38;;;;;;;9.38;5.40;;;7.40;99.90;;;;;;5043427;28;20025;-69
2022/03/15 07:31:05;;;;;;;11.02;5.18;;;7.40;99.90;;;;;;5044803;28;20024;-68
2022/03/15 07:33:31;;;;;;;11.38;5.22;;;7.30;99.90;;;;;;5044368;28;20029;-69
2022/03/15 07:35:59;;;;;;;16.38;5.60;;;7.40;99.90;;;;;;5043610;28;20023;-69
2022/03/15 07:38:25;;;;;;;14.10;6.28;;;7.30;99.90;;;;;;5047631;28;20025;-69
2022/03/15 07:40:52;;;;;;;12.18;5.55;;;7.30;99.90;;;;;;5042784;28;20029;-69
2022/03/15 07:43:19;;;;;;;12.95;5.18;;;7.40;99.90;;;;;;5041727;28;20026;-70
2022/03/15 07:45:45;;;;;;;12.55;6.18;;;7.40;99.90;;;;;;5043007;28;20021;-70
2022/03/15 07:48:11;;;;;;;12.70;6.10;;;7.40;99.90;;;;;;5042021;28;20040;-68
2022/03/15 07:50:37;;;;;;;10.27;5.38;;;7.40;99.90;;;;;;5043433;28;20522;-73
2022/03/15 07:53:02;;;;;;;17.23;6.22;;;7.40;99.90;;;;;;5041934;28;20025;-71
2022/03/15 07:55:28;;;;;;;14.65;5.72;;;7.40;99.90;;;;;;5045830;28;20028;-72
2022/03/15 07:57:54;;;;;;;15.13;6.32;;;7.50;99.90;;;;;;5036206;28;20106;-72
2022/03/15 08:00:19;;;;;;;8.90;5.10;;;7.50;99.90;;;;;;5043053;28;20513;-73
2022/03/15 08:02:45;;;;;;;11.57;5.40;;;7.50;99.90;;;;;;5041536;28;20503;-73
2022/03/15 08:05:11;;;;;;;10.63;5.93;;;7.50;99.90;;;;;;5041149;28;20033;-70
2022/03/15 08:07:37;;;;;;;10.80;4.90;;;7.50;99.90;;;;;;5043943;28;20025;-72
2022/03/15 08:10:04;;;;;;;15.27;6.18;;;7.50;99.90;;;;;;5043232;28;20094;-74
2022/03/15 08:12:31;;;;;;;10.05;5.40;;;7.50;99.90;;;;;;5045265;28;20035;-71
2022/03/15 08:14:57;;;;;;;10.65;5.55;;;7.60;99.90;;;;;;5042062;28;20018;-74
2022/03/15 08:17:22;;;;;;;12.23;5.65;;;7.70;99.90;;;;;;5044374;28;20102;-73
2022/03/15 08:19:48;;;;;;;14.05;6.18;;;7.70;99.90;;;;;;5037755;28;20046;-73
2022/03/15 08:22:14;;;;;;;10.65;5.57;;;7.70;99.90;;;;;;5047466;28;20025;-71
2022/03/15 08:24:39;;;;;;;11.02;5.60;;;7.80;99.90;;;;;;5046077;28;20056;-73
2022/03/15 08:27:05;;;;;;;12.68;6.78;;;7.90;99.90;;;;;;5044555;28;20059;-72
2022/03/15 08:29:31;;;;;;;11.48;6.13;;;7.90;99.90;;;;;;5036173;28;20037;-72
2022/03/15 08:31:57;;;;;;;11.90;5.97;;;7.90;99.90;;;;;;5047489;28;20033;-71
2022/03/15 08:34:23;;;;;;;11.68;5.32;;;7.90;99.90;;;;;;5043005;28;20032;-73
2022/03/15 08:36:49;;;;;;;11.73;5.35;;;8.00;99.90;;;;;;5035408;28;20027;-71
2022/03/15 08:39:15;;;;;;;11.57;5.75;;;8.00;99.90;;;;;;5044398;28;20025;-73
2022/03/15 08:41:42;;;;;;;10.23;4.95;;;8.00;99.90;;;;;;5043656;28;20036;-70
2022/03/15 08:44:08;;;;;;;13.90;4.63;;;8.10;99.90;;;;;;5040244;28;20029;-71
2022/03/15 08:46:34;;;;;;;12.93;5.32;;;8.20;99.90;;;;;;5044592;28;20482;-73
2022/03/15 08:49:00;;;;;;;14.25;5.53;;;8.30;99.90;;;;;;5046236;28;20028;-73
2022/03/15 08:51:26;;;;;;;19.60;5.97;;;8.30;99.90;;;;;;5040499;28;20481;-72
2022/03/15 08:53:51;;;;;;;12.57;5.25;;;8.40;99.90;;;;;;5040979;28;20106;-70
2022/03/15 08:56:17;;;;;;;11.82;4.63;;;8.50;99.90;;;;;;5047879;28;20025;-73
2022/03/15 08:58:42;;;;;;;11.52;5.05;;;8.50;99.90;;;;;;5046090;28;20389;-70
2022/03/15 09:01:08;;;;;;;12.43;5.40;;;8.60;99.90;;;;;;5053220;28;20103;-70
2022/03/15 09:03:34;;;;;;;18.98;5.43;;;8.60;99.90;;;;;;5048013;28;20088;-71
2022/03/15 09:06:00;;;;;;;14.77;4.97;;;8.70;99.90;;;;;;5041512;28;20021;-71
2022/03/15 09:08:25;;;;;;;10.82;4.90;;;8.70;99.90;;;;;;5046548;28;20518;-73
2022/03/15 09:10:51;;;;;;;9.95;4.57;;;8.80;99.90;;;;;;5043007;28;20048;-72
2022/03/15 09:13:17;;;;;;;10.10;5.15;;;8.80;99.90;;;;;;5039574;28;20104;-73
2022/03/15 09:15:43;;;;;;;11.63;5.30;;;8.90;99.90;;;;;;5039994;28;20040;-72
2022/03/15 09:18:09;;;;;;;17.85;5.90;;;8.80;99.90;;;;;;5038798;28;20029;-73
2022/03/15 09:20:35;;;;;;;11.02;4.93;;;8.90;99.90;;;;;;5041271;28;20359;-72
2022/03/15 09:23:02;;;;;;;10.63;5.25;;;8.80;99.90;;;;;;5044022;28;20111;-72
2022/03/15 09:25:27;;;;;;;14.60;5.53;;;8.80;99.90;;;;;;5044277;28;20068;-72
2022/03/15 09:27:53;;;;;;;14.27;6.68;;;8.90;99.90;;;;;;5040642;28;20065;-72
2022/03/15 09:30:19;;;;;;;11.80;5.15;;;8.90;99.90;;;;;;5046075;28;20029;-73
2022/03/15 09:32:45;;;;;;;13.43;6.38;;;8.80;99.90;;;;;;5046065;28;20101;-73
2022/03/15 09:35:11;;;;;;;13.88;6.75;;;8.80;99.90;;;;;;5049671;28;20028;-76
2022/03/15 09:37:36;;;;;;;10.50;6.15;;;8.80;99.90;;;;;;5041737;28;20033;-73
2022/03/15 09:40:08;;;;;;;14.45;6.80;;;8.80;99.90;;;;;;5043056;28;20717;-73
2022/03/15 09:42:35;;;;;;;11.98;6.43;;;8.80;99.90;;;;;;5043387;28;20044;-73
2022/03/15 09:45:02;;;;;;;15.38;6.85;;;8.90;99.90;;;;;;5047181;28;20055;-73
2022/03/15 09:47:32;;;;;;;13.73;6.10;;;8.80;99.90;;;;;;5048684;28;20076;-75
2022/03/15 09:49:59;;;;;;;13.80;6.85;;;8.80;99.90;;;;;;5048208;28;20026;-73
2022/03/15 09:52:27;;;;;;;15.40;6.28;;;8.90;99.90;;;;;;5047226;28;20441;-72
2022/03/15 09:54:54;;;;;;;16.33;6.72;;;8.90;99.90;;;;;;5049840;28;20017;-73
2022/03/15 09:57:20;;;;;;;13.95;6.35;;;8.80;99.90;;;;;;5046597;28;20025;-73
2022/03/15 09:59:50;;;;;;;11.63;6.57;;;8.80;99.90;;;;;;5048016;28;20214;-73
2022/03/15 10:02:17;;;;;;;12.43;5.88;;;8.80;99.90;;;;;;5044842;28;20457;-71
2022/03/15 10:04:42;;;;;;;15.48;6.15;;;8.90;99.90;;;;;;5044994;28;20371;-73
2022/03/15 10:07:08;;;;;;;12.80;5.78;;;8.80;99.90;;;;;;5044007;28;20032;-73
2022/03/15 10:09:34;;;;;;;11.98;5.72;;;8.90;99.90;;;;;;5048435;28;20068;-73
2022/03/15 10:12:02;;;;;;;13.35;5.63;;;8.90;99.90;;;;;;5046197;28;20040;-73
2022/03/15 10:14:28;;;;;;;16.05;6.53;;;8.90;99.90;;;;;;5048040;28;20029;-71
2022/03/15 10:17:01;;;;;;;12.15;5.90;;;8.90;99.90;;;;;;5053145;28;20598;-71
2022/03/15 10:19:29;;;;;;;14.40;6.55;;;9.00;99.90;;;;;;5047713;28;20550;-75
2022/03/15 10:21:56;;;;;;;14.25;6.07;;;9.00;99.90;;;;;;5048754;28;20033;-72
2022/03/15 10:24:27;;;;;;;17.55;6.55;;;9.10;99.90;;;;;;5047163;28;20029;-73
2022/03/15 10:26:58;;;;;;;16.50;6.20;;;9.10;99.90;;;;;;5047766;28;20071;-72
2022/03/15 10:29:30;;;;;;;14.05;7.25;;;9.10;99.90;;;;;;5002131;28;20048;-72
2022/03/15 10:31:59;;;;;;;18.52;8.05;;;9.10;99.90;;;;;;5005091;28;20386;-74
2022/03/15 10:34:29;;;;;;;16.08;7.40;;;9.10;99.90;;;;;;5002272;28;20014;-73
2022/03/15 10:36:58;;;;;;;15.73;6.25;;;9.00;99.90;;;;;;5008588;28;20612;-75
2022/03/15 10:39:28;;;;;;;12.45;6.72;;;9.10;99.90;;;;;;5005959;28;20026;-74
2022/03/15 10:42:04;;;;;;;14.45;7.18;;;9.10;99.90;;;;;;5012022;28;20026;-74
2022/03/15 10:44:39;;;;;;;15.40;7.07;;;9.10;99.90;;;;;;5012486;28;20040;-75
2022/03/15 10:47:17;;;;;;;15.05;6.53;;;9.10;99.90;;;;;;4996942;28;20030;-75
2022/03/15 10:49:51;;;;;;;13.57;6.38;;;9.10;99.90;;;;;;5006106;28;20117;-76
2022/03/15 10:52:35;;;;;;;15.43;6.32;;;9.20;99.90;;;;;;5011086;28;20026;-76
2022/03/15 10:55:20;;;;;;;14.97;6.63;;;9.20;99.90;;;;;;5012042;28;20076;-75
2022/03/15 10:58:01;;;;;;;15.23;6.95;;;9.20;99.90;;;;;;5006598;28;20305;-75
2022/03/15 11:00:33;;;;;;;18.08;7.20;;;9.20;99.90;;;;;;5008114;28;20557;-76
2022/03/15 11:02:59;;;;;;;13.15;6.40;;;9.20;99.90;;;;;;5008822;28;20026;-76
2022/03/15 11:05:27;;;;;;;13.07;6.75;;;9.20;99.90;;;;;;5011542;28;20087;-76
2022/03/15 11:07:53;;;;;;;11.40;6.10;;;9.20;99.90;;;;;;4998786;28;20479;-74
2022/03/15 11:10:19;;;;;;;11.98;6.32;;;9.20;99.90;;;;;;5025495;28;20028;-76
2022/03/15 11:13:17;;;;;;;14.52;7.07;;;9.20;99.90;;;;;;5025177;28;20022;-79
2022/03/15 11:15:48;;;;;;;13.07;6.57;;;9.20;99.90;;;;;;5000141;28;20038;-77
2022/03/15 11:18:17;;;;;;;13.98;6.78;;;9.20;99.90;;;;;;4997731;28;20033;-75
2022/03/15 11:20:48;;;;;;;10.60;6.72;;;9.20;99.90;;;;;;4993220;28;20057;-74
2022/03/15 11:23:15;;;;;;;11.73;7.18;;;9.10;99.90;;;;;;5007794;28;20026;-74
2022/03/15 11:25:47;;;;;;;12.43;6.90;;;9.10;99.90;;;;;;5012380;28;20680;-74
2022/03/15 11:28:33;;;;;;;14.88;6.47;;;9.20;99.90;;;;;;5012471;28;20052;-73
2022/03/15 11:30:59;;;;;;;13.40;6.85;;;9.10;99.90;;;;;;5014191;28;20049;-75
2022/03/15 11:33:27;;;;;;;15.25;7.75;;;9.10;99.90;;;;;;5012749;28;20045;-73
2022/03/15 11:35:53;;;;;;;13.90;6.80;;;9.10;99.90;;;;;;5014043;28;20502;-75
2022/03/15 11:38:19;;;;;;;15.88;7.57;;;9.00;99.90;;;;;;5013883;28;20037;-74
2022/03/15 11:40:54;;;;;;;13.48;7.72;;;9.00;99.90;;;;;;5012762;28;20026;-75
2022/03/15 11:43:35;;;;;;;14.48;7.38;;;9.00;99.90;;;;;;5012441;28;20244;-73
2022/03/15 11:46:12;;;;;;;16.77;7.68;;;9.00;99.90;;;;;;5012007;28;20033;-73
2022/03/15 11:48:59;;;;;;;14.82;7.82;;;9.00;99.90;;;;;;5012814;28;20538;-72
2022/03/15 11:51:48;;;;;;;12.80;8.18;;;8.90;99.90;;;;;;5012093;28;20382;-73
2022/03/15 11:54:43;;;;;;;14.75;8.50;;;9.00;99.90;;;;;;4993376;28;20088;-74
2022/03/15 11:57:45;;;;;;;14.98;8.60;;;8.90;99.90;;;;;;5011914;28;20034;-72
2022/03/15 12:00:11;;;;;;;18.08;8.85;;;8.90;99.90;;;;;;5013275;28;20030;-72
2022/03/15 12:02:40;;;;;;;18.05;8.82;;;8.90;99.90;;;;;;5011786;28;20069;-72
2022/03/15 12:05:20;;;;;;;15.75;8.10;;;9.00;99.90;;;;;;5013170;28;20018;-73
2022/03/15 12:08:05;;;;;;;14.95;7.65;;;9.00;99.90;;;;;;5013044;28;20614;-72
2022/03/15 12:10:35;;;;;;;;;;;9.00;99.90;;;;;;5013528;28;20030;-72
2022/03/15 12:13:03;;;;;;;14.55;6.50;;;9.00;99.90;;;;;;5013065;28;20004;-72
2022/03/15 12:15:35;;;;;;;8.65;3.38;;;9.00;99.90;;;;;;5012482;28;20026;-73
2022/03/15 12:20:50;;;;;;;3.22;2.42;;;9.20;99.90;;;;;;5013079;28;20064;-75
2022/03/15 12:23:29;;;;;;;3.22;1.90;;;9.30;99.90;;;;;;5012737;28;20037;-72
2022/03/15 12:25:56;;;;;;;4.53;1.80;;;9.40;99.90;;;;;;5012553;28;20089;-73
2022/03/15 12:28:32;;;;;;;4.28;1.35;;;9.50;99.90;;;;;;5012574;28;20044;-73
2022/03/15 12:31:09;;;;;;;5.00;1.52;;;9.60;99.90;;;;;;5012589;28;20029;-72
2022/03/15 12:33:35;;;;;;;4.47;1.30;;;9.70;99.90;;;;;;5012607;28;20025;-74
2022/03/15 12:36:08;;;;;;;4.40;1.30;;;9.70;99.90;;;;;;5012675;28;20029;-75
2022/03/15 12:38:40;;;;;;;2.58;1.50;;;9.70;99.90;;;;;;5010639;28;20077;-75
2022/03/15 12:41:07;;;;;;;2.88;1.45;;;9.80;99.90;;;;;;5006707;28;20117;-76
2022/03/15 12:43:35;;;;;;;1.20;1.08;;;9.80;99.90;;;;;;4996122;28;20023;-78
2022/03/15 12:46:11;;;;;;;5.30;1.40;;;9.80;99.90;;;;;;5012414;28;20030;-77
2022/03/15 12:48:42;;;;;;;4.28;1.95;;;9.90;99.90;;;;;;4999336;28;20026;-77
2022/03/15 12:51:17;;;;;;;4.93;1.60;;;9.90;99.90;;;;;;4999566;28;20033;-78
2022/03/15 12:53:48;;;;;;;7.95;1.60;;;9.90;99.90;;;;;;4999852;28;20578;-78
2022/03/15 12:56:14;;;;;;;2.38;1.35;;;10.00;99.90;;;;;;5014352;28;20079;-77